Time;durP1;ratioP1;P1;durP2;ratioP2;P2;SDS_P1;SDS_P2;PMS_P1;PMS_P2;Temp;Humidity;BMP_temperature;BMP_pressure;BME280_temperature;BME280_humidity;BME280_pressure;Samples;Min_cycle;Max_cycle;Signal;HPM_P1;HPM_P2
2022/11/24 00:01:15;;;;;;;11.68;8.20;;;;;;;4.73;78.18;98218.69;4988032;28;20093;-76
2022/11/24 00:03:42;;;;;;;10.00;8.30;;;;;;;4.72;78.05;98230.13;4987870;28;20057;-75
2022/11/24 00:06:12;;;;;;;12.43;9.30;;;;;;;4.72;77.98;98223.09;4987834;28;20050;-76
2022/11/24 00:08:41;;;;;;;11.75;9.48;;;;;;;4.34;78.18;98169.03;4987815;28;20042;-76
2022/11/24 00:11:09;;;;;;;11.88;7.80;;;;;;;4.73;77.91;98232.69;4987790;28;20050;-76
2022/11/24 00:13:37;;;;;;;10.15;8.23;;;;;;;4.76;77.96;98229.91;4987675;28;20183;-76
2022/11/24 00:16:07;;;;;;;9.82;7.38;;;;;;;4.75;77.79;98225.56;4986990;28;20077;-76
2022/11/24 00:18:33;;;;;;;11.02;8.43;;;;;;;4.74;77.87;98226.50;4987660;28;20050;-76
2022/11/24 00:21:00;;;;;;;10.05;7.28;;;;;;;4.59;77.72;98216.75;4987648;28;20050;-74
2022/11/24 00:23:28;;;;;;;8.93;7.30;;;;;;;4.77;77.50;98239.47;4987564;28;20050;-76
2022/11/24 00:25:55;;;;;;;10.23;7.50;;;;;;;4.78;77.56;98240.31;4987512;28;20051;-76
2022/11/24 00:28:21;;;;;;;9.95;7.38;;;;;;;4.77;77.48;98244.72;4987516;28;20066;-76
2022/11/24 00:30:48;;;;;;;11.88;8.02;;;;;;;4.78;77.47;98250.81;4987456;28;20051;-76
2022/11/24 00:33:15;;;;;;;12.38;8.30;;;;;;;2.21;77.32;97824.72;4987333;28;20047;-76
2022/11/24 00:35:41;;;;;;;10.68;8.38;;;;;;;4.78;77.53;98250.81;4986531;28;20078;-77
2022/11/24 00:38:08;;;;;;;9.13;7.65;;;;;;;4.43;77.56;98202.69;4987404;28;20316;-75
2022/11/24 00:40:36;;;;;;;11.05;8.05;;;;;;;4.76;77.57;98261.41;4987300;28;20206;-75
2022/11/24 00:43:03;;;;;;;11.88;8.45;;;;;;;4.77;77.60;98259.63;4987258;28;20058;-75
2022/11/24 00:45:30;;;;;;;12.18;8.98;;;;;;;4.77;77.62;98249.13;4987198;28;20061;-75
2022/11/24 00:47:56;;;;;;;11.85;8.75;;;;;;;4.76;77.47;98257.91;4987121;28;20298;-75
2022/11/24 00:50:23;;;;;;;10.65;8.90;;;;;;;4.76;77.74;98252.66;4987167;28;20050;-75
2022/11/24 00:52:50;;;;;;;12.55;9.00;;;;;;;4.77;77.95;98262.25;4987046;28;20197;-75
2022/11/24 00:55:16;;;;;;;10.90;8.50;;;;;;;4.77;78.07;98275.38;4987056;28;20214;-75
2022/11/24 00:57:44;;;;;;;11.57;8.23;;;;;;;4.77;78.09;98268.34;4987026;28;20202;-75
2022/11/24 01:00:13;;;;;;;10.73;8.02;;;;;;;4.77;77.90;98281.47;4986578;28;20063;-75
2022/11/24 01:02:39;;;;;;;12.02;9.00;;;;;;;4.77;78.23;98273.59;4986984;28;20201;-75
2022/11/24 01:05:07;;;;;;;9.88;8.50;;;;;;;4.76;78.17;98274.53;4986960;28;20050;-75
2022/11/24 01:07:33;;;;;;;10.98;8.60;;;;;;;4.77;78.31;98270.13;4986929;28;20054;-75
2022/11/24 01:10:00;;;;;;;9.82;7.78;;;;;;;4.76;78.45;98274.53;4986872;28;20051;-75
2022/11/24 01:12:27;;;;;;;11.23;7.63;;;;;;;4.77;78.53;98280.63;4986745;28;20050;-76
2022/11/24 01:14:55;;;;;;;11.50;8.20;;;;;;;4.77;78.62;98278.84;4986838;28;20050;-75
2022/11/24 01:17:22;;;;;;;10.93;8.00;;;;;;;4.01;78.55;98155.75;4986746;28;20050;-75
2022/11/24 01:19:49;;;;;;;11.73;7.35;;;;;;;4.77;78.51;98286.72;4986769;28;20051;-75
2022/11/24 01:22:16;;;;;;;11.07;7.63;;;;;;;4.77;78.59;98278.00;4986750;28;20054;-75
2022/11/24 01:24:43;;;;;;;10.55;7.80;;;;;;;4.77;78.65;98286.72;4986772;28;20078;-75
2022/11/24 01:27:09;;;;;;;12.43;8.35;;;;;;;4.80;78.60;98299.69;4986730;28;20050;-75
2022/11/24 01:29:36;;;;;;;10.65;8.35;;;;;;;4.81;78.50;98305.81;4986733;28;20061;-75
2022/11/24 01:32:04;;;;;;;11.43;8.98;;;;;;;4.67;78.53;98279.38;4986695;28;20097;-75
2022/11/24 01:34:31;;;;;;;12.43;9.68;;;;;;;-0.28;78.01;97642.31;4986518;28;20057;-75
2022/11/24 01:36:58;;;;;;;12.63;9.45;;;;;;;4.85;78.58;98315.22;4985835;28;20051;-75
2022/11/24 01:39:24;;;;;;;12.13;10.15;;;;;;;4.83;78.73;98309.19;4986632;28;20051;-75
2022/11/24 01:41:51;;;;;;;13.60;10.45;;;;;;;4.82;78.84;98308.34;4986620;28;20051;-75
2022/11/24 01:44:23;;;;;;;13.45;10.85;;;;;;;4.80;78.98;98312.81;4986604;28;20057;-75
2022/11/24 01:46:54;;;;;;;13.07;10.80;;;;;;;4.80;78.96;98319.84;4988310;28;20062;-75
2022/11/24 01:49:26;;;;;;;10.95;9.43;;;;;;;4.79;78.83;98310.28;4990407;28;20050;-75
2022/11/24 01:51:57;;;;;;;12.10;10.50;;;;;;;4.80;79.00;98317.22;4990466;28;20062;-75
2022/11/24 01:54:28;;;;;;;13.00;10.95;;;;;;;4.79;79.17;98320.78;4990281;28;20349;-75
2022/11/24 01:56:58;;;;;;;12.10;10.48;;;;;;;4.76;79.32;98324.41;4990303;28;20050;-75
2022/11/24 01:59:26;;;;;;;14.00;10.75;;;;;;;4.76;79.41;98323.53;4989993;28;20051;-75
2022/11/24 02:01:54;;;;;;;11.68;9.43;;;;;;;4.76;79.54;98326.16;4991261;28;20077;-75
2022/11/24 02:04:27;;;;;;;12.23;10.45;;;;;;;4.76;79.55;98313.91;4989896;28;20046;-75
2022/11/24 02:06:57;;;;;;;11.90;8.98;;;;;;;4.74;79.67;98323.63;4990134;28;20054;-75
2022/11/24 02:09:30;;;;;;;12.25;10.43;;;;;;;4.72;79.86;98316.75;4989262;28;20043;-75
2022/11/24 02:12:02;;;;;;;12.25;9.52;;;;;;;4.71;79.71;98317.66;5572400;23;20050;-71
2022/11/24 02:14:29;;;;;;;10.18;8.48;;;;;;;4.69;79.96;98315.13;5009492;28;20320;-71
2022/11/24 02:16:55;;;;;;;9.20;8.20;;;;;;;4.69;79.85;98324.75;5009412;28;20401;-73
2022/11/24 02:19:35;;;;;;;10.75;8.90;;;;;;;4.70;79.90;98323.84;5009373;28;20050;-74
2022/11/24 02:22:03;;;;;;;10.70;8.82;;;;;;;4.66;79.86;98320.50;5009405;28;20050;-73
2022/11/24 02:24:37;;;;;;;11.93;9.30;;;;;;;4.66;79.84;98325.75;5009334;28;20061;-73
2022/11/24 02:27:05;;;;;;;9.98;8.93;;;;;;;4.65;79.81;98317.97;5009278;28;20046;-74
2022/11/24 02:29:32;;;;;;;12.00;9.50;;;;;;;4.63;79.75;98315.41;5008357;28;20053;-73
2022/11/24 02:32:04;;;;;;;10.77;9.35;;;;;;;4.41;79.77;98283.22;5009203;28;20069;-73
2022/11/24 02:34:30;;;;;;;10.52;9.18;;;;;;;4.59;79.76;98318.25;5008793;28;20049;-73
2022/11/24 02:36:57;;;;;;;12.52;9.02;;;;;;;4.57;79.74;98327.97;5008788;28;20171;-74
2022/11/24 02:39:24;;;;;;;13.48;10.00;;;;;;;4.56;79.76;98321.88;5009027;28;20046;-74
2022/11/24 02:44:42;;;;;;;12.60;10.75;;;;;;;4.11;79.67;98320.41;5447437;23;20061;-73
2022/11/24 02:47:12;;;;;;;12.57;10.77;;;;;;;4.33;79.34;98293.25;5008923;28;20057;-73
2022/11/24 02:52:14;;;;;;;13.05;10.95;;;;;;;4.40;79.36;98297.28;5197002;23;20061;-73
2022/11/24 02:54:41;;;;;;;14.73;12.20;;;;;;;4.49;79.38;98323.94;5028358;28;20049;-73
2022/11/24 02:57:08;;;;;;;15.57;12.73;;;;;;;4.04;79.26;98248.22;5027067;28;20049;-73
2022/11/24 02:59:35;;;;;;;14.60;10.75;;;;;;;4.47;79.27;98317.06;5027327;28;20052;-73
2022/11/24 03:02:03;;;;;;;15.50;11.93;;;;;;;4.46;79.26;98328.47;5027906;28;20256;-73
2022/11/24 03:04:30;;;;;;;14.25;10.75;;;;;;;4.45;79.33;98322.38;5027223;28;20038;-73
2022/11/24 03:06:57;;;;;;;16.08;12.50;;;;;;;4.00;79.27;98251.91;5027922;28;20204;-72
2022/11/24 03:09:23;;;;;;;15.10;11.98;;;;;;;4.45;79.20;98321.53;5028426;28;20045;-73
2022/11/24 03:11:50;;;;;;;16.38;12.18;;;;;;;4.45;79.13;98322.38;5028388;28;20069;-73
2022/11/24 03:14:17;;;;;;;16.80;11.25;;;;;;;4.46;79.20;98328.47;5026843;28;20045;-73
2022/11/24 03:16:44;;;;;;;14.77;10.73;;;;;;;4.44;79.01;98332.94;5027254;28;20068;-73
2022/11/24 03:19:12;;;;;;;13.52;11.02;;;;;;;3.45;78.97;98161.84;5026882;28;20042;-72
2022/11/24 03:21:39;;;;;;;13.55;10.40;;;;;;;4.45;79.04;98326.78;5027647;28;20323;-73
2022/11/24 03:24:05;;;;;;;14.57;11.20;;;;;;;4.45;79.00;98332.03;5026729;28;20041;-73
2022/11/24 03:26:34;;;;;;;14.15;12.45;;;;;;;4.44;79.03;98331.16;5028082;28;20049;-72
2022/11/24 03:29:01;;;;;;;13.63;10.80;;;;;;;4.43;79.01;98324.22;5027515;28;20048;-73
2022/11/24 03:31:27;;;;;;;12.70;10.25;;;;;;;4.43;78.88;98337.34;5027691;28;20073;-72
2022/11/24 03:33:54;;;;;;;12.75;9.88;;;;;;;4.14;78.87;98280.94;5027333;28;20174;-72
2022/11/24 03:36:22;;;;;;;15.95;11.25;;;;;;;4.42;78.93;98330.38;5027345;28;20046;-72
2022/11/24 03:38:49;;;;;;;10.52;9.40;;;;;;;4.39;78.69;98340.19;5027556;28;20046;-72
2022/11/24 03:41:16;;;;;;;11.65;9.27;;;;;;;4.37;78.73;98335.00;5027535;28;20072;-73
2022/11/24 03:43:42;;;;;;;13.65;9.57;;;;;;;3.92;78.46;98282.00;5026389;28;20049;-73
2022/11/24 03:46:09;;;;;;;11.68;9.48;;;;;;;4.35;78.39;98342.09;5027449;28;20225;-73
2022/11/24 03:48:36;;;;;;;11.80;8.95;;;;;;;4.34;78.38;98350.03;5027082;28;20081;-73
2022/11/24 03:51:03;;;;;;;12.88;10.52;;;;;;;4.33;78.20;98361.44;5026570;28;20053;-73
2022/11/24 03:53:33;;;;;;;12.75;8.88;;;;;;;4.25;78.05;98355.69;5027052;28;20052;-73
2022/11/24 03:56:00;;;;;;;9.40;7.95;;;;;;;4.24;78.00;98356.63;5027299;28;20053;-73
2022/11/24 03:58:28;;;;;;;12.25;9.48;;;;;;;3.06;77.87;98174.94;5027087;28;20174;-73
2022/11/24 04:00:55;;;;;;;11.27;9.23;;;;;;;4.19;77.98;98367.28;5027278;28;20112;-74
2022/11/24 04:03:22;;;;;;;11.88;9.48;;;;;;;4.17;78.01;98363.88;5027095;28;20038;-73
2022/11/24 04:05:49;;;;;;;11.38;9.15;;;;;;;2.88;77.95;98151.28;5026066;28;20041;-74
2022/11/24 04:08:17;;;;;;;11.32;9.15;;;;;;;4.16;78.06;98378.75;5027314;28;20054;-74
2022/11/24 04:10:45;;;;;;;12.68;9.75;;;;;;;4.15;77.96;98373.59;5026797;28;20145;-73
2022/11/24 04:13:12;;;;;;;11.85;9.13;;;;;;;4.12;78.03;98381.59;5026552;28;20201;-73
2022/11/24 04:15:40;;;;;;;12.45;9.80;;;;;;;4.08;78.12;98383.50;5026638;28;20046;-72
2022/11/24 04:18:08;;;;;;;12.15;10.52;;;;;;;4.03;78.00;98382.84;5026304;28;20050;-72
2022/11/24 04:20:35;;;;;;;13.65;11.38;;;;;;;3.85;78.10;98352.19;5026893;28;20045;-73
2022/11/24 04:23:02;;;;;;;13.70;11.18;;;;;;;4.04;78.26;98384.53;5025667;28;20042;-73
2022/11/24 04:25:29;;;;;;;10.38;8.63;;;;;;;4.03;78.22;98393.34;5026735;28;20045;-73
2022/11/24 04:27:57;;;;;;;15.05;10.68;;;;;;;4.01;78.26;98392.53;5026350;28;20045;-73
2022/11/24 04:30:25;;;;;;;13.88;9.93;;;;;;;4.01;78.36;98400.41;5026275;28;20054;-74
2022/11/24 04:32:52;;;;;;;13.02;10.35;;;;;;;4.00;78.48;98397.84;5026571;28;20049;-73
2022/11/24 04:35:20;;;;;;;12.02;9.18;;;;;;;4.00;78.38;98405.72;5026207;28;20042;-73
2022/11/24 04:37:47;;;;;;;13.27;10.30;;;;;;;3.98;78.44;98411.03;5026427;28;20050;-73
2022/11/24 04:40:14;;;;;;;12.40;10.13;;;;;;;3.27;78.32;98311.94;5026242;28;20053;-73
2022/11/24 04:42:41;;;;;;;13.07;9.73;;;;;;;3.98;78.55;98412.81;5026516;28;20057;-74
2022/11/24 04:45:11;;;;;;;13.35;10.05;;;;;;;3.96;78.61;98417.25;5026120;28;20093;-74
2022/11/24 04:47:38;;;;;;;13.13;10.18;;;;;;;3.95;78.62;98421.66;5026474;28;20054;-74
2022/11/24 04:50:06;;;;;;;10.48;8.23;;;;;;;3.95;78.68;98436.53;5026053;28;20045;-73
2022/11/24 04:52:33;;;;;;;13.02;8.70;;;;;;;3.94;78.66;98430.44;5025102;28;20049;-73
2022/11/24 04:55:00;;;;;;;11.70;9.65;;;;;;;3.95;78.56;98426.91;5025787;28;20308;-72
2022/11/24 04:57:27;;;;;;;11.65;8.95;;;;;;;3.95;78.69;98439.16;5026543;28;20038;-73
2022/11/24 04:59:54;;;;;;;13.02;10.40;;;;;;;3.95;78.71;98439.16;5024991;28;20053;-73
2022/11/24 05:02:23;;;;;;;12.13;9.32;;;;;;;3.96;78.65;98438.22;5025579;28;20050;-73
2022/11/24 05:04:50;;;;;;;12.00;8.90;;;;;;;3.96;78.65;98443.47;5026111;28;20042;-73
2022/11/24 05:07:18;;;;;;;13.93;9.90;;;;;;;2.46;78.49;98187.09;5026079;28;20054;-73
2022/11/24 05:12:30;;;;;;;10.70;8.07;;;;;;;3.94;78.66;98440.91;5025803;28;20052;-73
2022/11/24 05:14:58;;;;;;;11.35;8.77;;;;;;;3.93;78.54;98428.72;5025893;28;20487;-74
2022/11/24 05:17:29;;;;;;;10.63;8.52;;;;;;;3.93;78.63;98439.22;5025644;28;20041;-73
2022/11/24 05:19:56;;;;;;;10.52;8.25;;;;;;;3.50;78.60;98378.16;5026228;28;20049;-73
2022/11/24 05:22:23;;;;;;;10.68;8.55;;;;;;;3.93;78.70;98446.22;5025364;28;20054;-72
2022/11/24 05:24:50;;;;;;;11.10;9.00;;;;;;;2.69;78.61;98248.91;5025594;28;20317;-73
2022/11/24 05:27:17;;;;;;;9.77;7.80;;;;;;;3.91;78.56;98462.03;5025565;28;20100;-73
2022/11/24 05:29:44;;;;;;;12.23;7.95;;;;;;;3.91;78.56;98462.03;5025315;28;20088;-71
2022/11/24 05:32:11;;;;;;;9.63;8.45;;;;;;;3.56;78.62;98405.00;5025211;28;20046;-71
2022/11/24 05:34:39;;;;;;;9.23;8.05;;;;;;;3.92;78.51;98465.50;5025466;28;20072;-72
2022/11/24 05:37:07;;;;;;;10.75;8.57;;;;;;;3.92;78.68;98476.00;5024626;28;20232;-73
2022/11/24 05:39:34;;;;;;;9.43;7.57;;;;;;;3.39;78.45;98395.22;5025409;28;20048;-73
2022/11/24 05:42:39;;;;;;;9.57;8.30;;;;;;;3.91;78.61;98474.28;5025645;28;20092;-72
2022/11/24 05:44:49;;;;;;;9.25;7.85;;;;;;;3.90;78.79;98481.28;5025319;28;20109;-73
2022/11/24 05:47:15;;;;;;;9.23;6.80;;;;;;;3.89;78.70;98483.97;5025383;28;20050;-73
2022/11/24 05:49:44;;;;;;;8.57;6.90;;;;;;;3.89;78.71;98484.84;5025931;28;20092;-73
2022/11/24 05:52:11;;;;;;;8.65;6.60;;;;;;;3.91;78.65;98485.63;5025201;28;20057;-72
2022/11/24 05:54:38;;;;;;;8.10;6.80;;;;;;;3.91;78.61;98493.47;5025284;28;20053;-73
2022/11/24 05:57:05;;;;;;;7.28;6.18;;;;;;;3.32;78.60;98399.00;5024481;28;20041;-74
2022/11/24 05:59:31;;;;;;;8.95;7.18;;;;;;;3.93;78.64;98503.91;5025245;28;20221;-72
2022/11/24 06:01:58;;;;;;;7.88;6.22;;;;;;;3.93;78.73;98499.50;5025507;28;20050;-74
2022/11/24 06:04:25;;;;;;;7.60;5.93;;;;;;;3.91;78.65;98503.97;5025531;28;20048;-73
2022/11/24 06:06:53;;;;;;;6.50;5.80;;;;;;;3.93;78.54;98517.88;5025517;28;20052;-73
2022/11/24 06:09:20;;;;;;;7.55;6.57;;;;;;;3.95;78.70;98517.81;5025479;28;20053;-73
2022/11/24 06:11:47;;;;;;;6.55;5.70;;;;;;;3.95;78.53;98526.53;5024699;28;20048;-72
2022/11/24 06:14:14;;;;;;;8.48;6.22;;;;;;;3.66;78.43;98472.69;5025348;28;20050;-72
2022/11/24 06:16:41;;;;;;;7.15;5.95;;;;;;;2.71;78.48;98339.50;5025604;28;20053;-72
2022/11/24 06:19:09;;;;;;;6.50;5.50;;;;;;;3.95;78.58;98526.53;5025034;28;20348;-73
2022/11/24 06:21:35;;;;;;;7.10;5.60;;;;;;;3.76;78.44;98508.06;5024961;28;20041;-73
2022/11/24 06:24:04;;;;;;;7.68;5.38;;;;;;;3.98;78.47;98530.78;5025367;28;20105;-73
2022/11/24 06:26:31;;;;;;;6.43;5.50;;;;;;;3.98;78.40;98534.25;5025025;28;20046;-73
2022/11/24 06:28:58;;;;;;;6.10;4.55;;;;;;;3.98;78.55;98534.25;5025285;28;20050;-73
2022/11/24 06:31:24;;;;;;;6.10;5.20;;;;;;;4.00;78.40;98539.44;5024592;28;20221;-73
2022/11/24 06:33:52;;;;;;;6.32;4.97;;;;;;;4.00;78.22;98544.69;5026746;28;20088;-72
2022/11/24 06:36:19;;;;;;;6.65;5.28;;;;;;;3.46;78.15;98468.25;5028377;28;20038;-72
2022/11/24 06:38:45;;;;;;;6.25;5.18;;;;;;;4.00;78.16;98548.16;5028672;28;20037;-73
2022/11/24 06:41:15;;;;;;;6.45;5.28;;;;;;;4.01;78.47;98543.75;5028606;28;20042;-73
2022/11/24 06:43:42;;;;;;;7.43;5.47;;;;;;;3.87;78.46;98520.75;5028233;28;20046;-72
2022/11/24 06:46:09;;;;;;;6.95;4.85;;;;;;;4.07;78.34;98546.97;5027407;28;20064;-72
2022/11/24 06:48:37;;;;;;;6.47;5.05;;;;;;;3.74;78.27;98493.34;5028628;28;20054;-72
2022/11/24 06:51:06;;;;;;;6.47;5.18;;;;;;;3.38;78.33;98459.84;5028174;28;20077;-73
2022/11/24 06:53:36;;;;;;;5.10;4.45;;;;;;;3.91;78.22;98527.56;5028657;28;20046;-73
2022/11/24 06:56:05;;;;;;;6.22;5.10;;;;;;;3.76;78.28;98515.94;5028056;28;20049;-72
2022/11/24 06:58:34;;;;;;;5.20;4.57;;;;;;;4.11;78.25;98552.94;5028587;28;20038;-73
2022/11/24 07:01:01;;;;;;;6.72;5.80;;;;;;;4.14;78.07;98553.69;5028182;28;20054;-73
2022/11/24 07:03:27;;;;;;;6.20;5.15;;;;;;;4.16;77.90;98546.59;5027907;28;20041;-72
2022/11/24 07:05:57;;;;;;;6.55;5.10;;;;;;;4.18;77.86;98572.75;5028081;28;20041;-73
2022/11/24 07:08:23;;;;;;;5.15;4.45;;;;;;;2.42;77.81;98269.19;5028098;28;20077;-72
2022/11/24 07:10:51;;;;;;;8.13;5.47;;;;;;;3.26;77.79;98417.59;5028362;28;20042;-72
2022/11/24 07:13:18;;;;;;;5.47;4.72;;;;;;;4.25;77.91;98589.13;5026812;28;20056;-72
2022/11/24 07:15:46;;;;;;;6.72;5.53;;;;;;;4.27;77.76;98577.66;5027502;28;20103;-73
2022/11/24 07:18:13;;;;;;;6.13;4.75;;;;;;;4.30;77.51;98579.28;5028119;28;20327;-72
2022/11/24 07:20:40;;;;;;;7.22;5.07;;;;;;;4.32;77.62;98585.34;5027819;28;20109;-72
2022/11/24 07:23:06;;;;;;;5.15;4.65;;;;;;;4.32;77.57;98580.94;5028133;28;20054;-73
2022/11/24 07:25:33;;;;;;;6.20;4.80;;;;;;;4.34;77.69;98589.59;5027702;28;20320;-72
2022/11/24 07:28:00;;;;;;;4.95;4.32;;;;;;;4.35;77.56;98591.31;5026621;28;20042;-72
2022/11/24 07:30:28;;;;;;;5.82;5.22;;;;;;;4.40;77.62;98591.97;5027463;28;20065;-72
2022/11/24 07:33:00;;;;;;;5.75;4.60;;;;;;;3.88;77.10;98525.06;5026505;28;20041;-73
2022/11/24 07:35:27;;;;;;;5.82;4.50;;;;;;;4.44;77.37;98600.56;5026729;28;20225;-73
2022/11/24 07:37:55;;;;;;;5.28;4.18;;;;;;;4.46;77.28;98599.56;5027216;28;20046;-73
2022/11/24 07:40:22;;;;;;;5.32;4.80;;;;;;;4.49;77.24;98599.44;5027145;28;20054;-72
2022/11/24 07:42:49;;;;;;;5.63;4.70;;;;;;;4.50;77.21;98602.91;5027141;28;20225;-72
2022/11/24 07:45:15;;;;;;;5.28;4.65;;;;;;;4.51;77.19;98602.00;5026655;28;20038;-73
2022/11/24 07:47:42;;;;;;;4.72;4.22;;;;;;;4.54;77.09;98604.50;5027265;28;20054;-73
2022/11/24 07:50:11;;;;;;;5.53;4.20;;;;;;;4.56;77.07;98613.16;5027062;28;20049;-72
2022/11/24 07:52:38;;;;;;;5.07;4.22;;;;;;;4.61;76.88;98607.72;5026817;28;20069;-73
2022/11/24 07:55:06;;;;;;;4.45;3.63;;;;;;;4.61;76.94;98612.97;5026820;28;20297;-73
2022/11/24 07:57:33;;;;;;;5.05;4.13;;;;;;;4.64;76.96;98618.94;5027065;28;20057;-73
2022/11/24 07:59:59;;;;;;;5.80;4.05;;;;;;;4.16;76.83;98546.59;5027038;28;20049;-73
2022/11/24 08:02:26;;;;;;;5.70;4.15;;;;;;;4.67;77.12;98628.44;5025942;28;20220;-73
2022/11/24 08:04:53;;;;;;;4.82;4.03;;;;;;;3.66;77.17;98450.88;5026783;28;20045;-73
2022/11/24 08:07:21;;;;;;;5.40;4.18;;;;;;;4.72;76.81;98632.56;5026559;28;20042;-73
2022/11/24 08:09:49;;;;;;;4.68;4.13;;;;;;;4.54;77.15;98603.63;5027069;28;20096;-73
2022/11/24 08:12:16;;;;;;;4.88;4.13;;;;;;;4.76;77.24;98630.69;5026629;28;20205;-73
2022/11/24 08:14:43;;;;;;;4.55;3.65;;;;;;;4.79;77.38;98638.41;5026776;28;20174;-73
2022/11/24 08:17:09;;;;;;;5.28;3.88;;;;;;;4.79;77.50;98638.41;5026962;28;20042;-73
2022/11/24 08:19:36;;;;;;;5.07;3.88;;;;;;;4.81;77.69;98647.06;5026806;28;20174;-73
2022/11/24 08:22:03;;;;;;;3.97;3.58;;;;;;;4.65;77.85;98617.16;5026624;28;20095;-73
2022/11/24 08:24:31;;;;;;;5.90;4.53;;;;;;;4.80;78.23;98646.22;5026398;28;20041;-73
2022/11/24 08:26:58;;;;;;;5.35;4.20;;;;;;;4.81;78.28;98653.19;5026868;28;20049;-73
2022/11/24 08:29:28;;;;;;;4.85;3.90;;;;;;;4.29;78.42;98583.69;5026827;28;20051;-73
2022/11/24 08:31:56;;;;;;;4.15;3.70;;;;;;;4.49;78.71;98596.81;5026679;28;20057;-73
2022/11/24 08:34:23;;;;;;;4.32;3.67;;;;;;;4.15;78.67;98539.66;5025319;28;20046;-73
2022/11/24 08:36:49;;;;;;;4.03;3.13;;;;;;;4.68;78.72;98633.63;5026166;28;20052;-73
2022/11/24 08:39:16;;;;;;;5.50;4.65;;;;;;;4.88;78.84;98652.91;5026123;28;20284;-73
2022/11/24 08:41:44;;;;;;;4.82;3.95;;;;;;;4.33;79.22;98573.91;5026110;28;20045;-73
2022/11/24 08:44:14;;;;;;;4.47;3.58;;;;;;;4.86;79.51;98666.13;5025923;28;20048;-73
2022/11/24 08:46:41;;;;;;;5.03;4.13;;;;;;;4.84;79.66;98664.47;5026289;28;20100;-73
2022/11/24 08:49:08;;;;;;;4.55;3.60;;;;;;;4.89;79.92;98675.63;5025035;28;20041;-73
2022/11/24 08:51:35;;;;;;;4.57;3.53;;;;;;;4.88;80.16;98674.78;5025837;28;20062;-73
2022/11/24 08:54:03;;;;;;;4.22;3.22;;;;;;;4.88;80.17;98674.78;5026327;28;20057;-73
2022/11/24 08:56:31;;;;;;;4.50;3.70;;;;;;;3.91;80.23;98508.34;5024506;28;20050;-73
2022/11/24 08:59:00;;;;;;;5.90;3.30;;;;;;;4.69;80.28;98647.59;5025784;28;20088;-73
2022/11/24 09:01:27;;;;;;;4.65;3.78;;;;;;;4.91;80.13;98669.44;5025828;28;20301;-73
2022/11/24 09:03:55;;;;;;;5.68;3.95;;;;;;;4.92;80.18;98675.53;5025846;28;20213;-73
2022/11/24 09:06:24;;;;;;;4.95;3.85;;;;;;;4.93;80.28;98678.09;5025812;28;20041;-73
2022/11/24 09:08:51;;;;;;;4.32;3.53;;;;;;;4.26;80.42;98575.94;5026081;28;20109;-73
2022/11/24 09:11:18;;;;;;;5.72;4.05;;;;;;;4.93;80.55;98672.84;5025871;28;20052;-73
2022/11/24 09:13:45;;;;;;;5.22;4.60;;;;;;;4.86;80.79;98660.00;5025967;28;20095;-73
2022/11/24 09:16:15;;;;;;;5.18;4.15;;;;;;;4.94;80.71;98674.53;5025404;28;20228;-73
2022/11/24 09:18:42;;;;;;;5.50;4.10;;;;;;;4.42;81.07;98582.25;5025860;28;20123;-73
2022/11/24 09:21:11;;;;;;;5.10;3.92;;;;;;;4.89;81.24;98658.13;5025528;28;20046;-73
2022/11/24 09:23:38;;;;;;;6.82;4.40;;;;;;;4.82;81.21;98659.28;5025707;28;20057;-73
2022/11/24 09:26:06;;;;;;;6.72;4.38;;;;;;;5.00;81.70;98665.56;5025849;28;20057;-73
2022/11/24 09:28:33;;;;;;;5.75;4.20;;;;;;;5.00;81.77;98676.06;5025586;28;20053;-73
2022/11/24 09:31:03;;;;;;;7.38;3.97;;;;;;;5.03;81.72;98662.78;5025970;28;20046;-73
2022/11/24 09:33:32;;;;;;;5.28;4.10;;;;;;;4.73;81.72;98613.28;5025792;28;20084;-73
2022/11/24 09:35:59;;;;;;;5.32;4.20;;;;;;;5.08;81.94;98671.31;5025421;28;20245;-73
2022/11/24 09:38:26;;;;;;;4.68;3.85;;;;;;;5.08;81.94;98671.31;5025632;28;20042;-73
2022/11/24 09:40:53;;;;;;;5.47;4.47;;;;;;;4.92;81.75;98637.00;5024390;28;20121;-73
2022/11/24 09:43:27;;;;;;;5.20;4.40;;;;;;;5.13;81.96;98666.72;5024509;28;20042;-73
2022/11/24 09:45:57;;;;;;;6.17;4.00;;;;;;;5.14;82.06;98671.06;5025439;28;20046;-73
2022/11/24 09:48:29;;;;;;;5.40;4.10;;;;;;;5.18;81.82;98662.13;5025751;28;20538;-73
2022/11/24 09:51:01;;;;;;;5.15;3.95;;;;;;;5.21;82.01;98666.38;5025053;28;20194;-74
2022/11/24 09:53:33;;;;;;;4.55;3.55;;;;;;;5.24;81.87;98693.38;5025201;28;20046;-73
2022/11/24 09:56:05;;;;;;;4.40;3.72;;;;;;;4.76;81.97;98581.66;5025231;28;20057;-73
2022/11/24 09:58:41;;;;;;;5.10;4.43;;;;;;;1.85;81.19;98100.69;5024379;28;20213;-73
2022/11/24 10:01:15;;;;;;;7.07;5.13;;;;;;;5.31;81.89;98672.94;5024406;28;20212;-73
2022/11/24 10:03:43;;;;;;;6.35;4.50;;;;;;;4.64;81.46;98558.56;5025287;28;20232;-73
2022/11/24 10:06:22;;;;;;;6.80;5.10;;;;;;;5.36;81.85;98673.56;5025801;28;20213;-73
2022/11/24 10:09:16;;;;;;;6.20;4.70;;;;;;;5.40;81.91;98670.75;5028995;28;20088;-73
2022/11/24 10:11:48;;;;;;;5.28;4.72;;;;;;;5.41;81.67;98661.94;5022461;28;20135;-73
2022/11/24 10:14:36;;;;;;;7.15;5.28;;;;;;;5.45;82.45;98657.41;5027945;28;20116;-73
2022/11/24 10:17:15;;;;;;;6.15;5.32;;;;;;;5.46;82.42;98667.00;5028617;28;20049;-74
2022/11/24 10:19:48;;;;;;;7.07;5.10;;;;;;;5.51;82.34;98661.53;5029096;28;20042;-73
2022/11/24 10:22:30;;;;;;;6.55;5.40;;;;;;;5.53;82.46;98660.53;5028492;28;20057;-73
2022/11/24 10:25:11;;;;;;;6.60;5.20;;;;;;;5.57;82.92;98655.97;5027751;28;20049;-73
2022/11/24 10:27:43;;;;;;;8.10;4.82;;;;;;;5.60;82.19;98661.09;5027727;28;20060;-74
2022/11/24 10:30:15;;;;;;;6.30;5.47;;;;;;;5.64;82.54;98657.41;5028645;28;20046;-74
2022/11/24 10:32:46;;;;;;;7.40;5.43;;;;;;;5.69;82.79;98664.16;5028636;28;20201;-73
2022/11/24 10:35:19;;;;;;;6.25;5.32;;;;;;;5.71;82.85;98662.31;5028355;28;20065;-73
2022/11/24 10:37:56;;;;;;;6.80;5.35;;;;;;;5.74;83.24;98683.19;5027574;28;20309;-73
2022/11/24 10:40:34;;;;;;;6.93;5.05;;;;;;;5.57;82.95;98633.19;5028796;28;20129;-73
2022/11/24 10:43:00;;;;;;;8.02;6.30;;;;;;;5.77;82.97;98669.91;5027428;28;20053;-73
2022/11/24 10:45:28;;;;;;;8.07;5.78;;;;;;;2.57;82.71;98129.94;5028142;28;20050;-73
2022/11/24 10:47:55;;;;;;;8.05;5.05;;;;;;;5.82;82.89;98671.47;5028780;28;20292;-73
2022/11/24 10:50:23;;;;;;;9.10;5.10;;;;;;;5.83;82.56;98674.03;5028121;28;20046;-73
2022/11/24 10:53:05;;;;;;;7.00;4.80;;;;;;;5.08;83.01;98559.22;5027986;28;20041;-73
2022/11/24 10:56:01;;;;;;;7.53;5.93;;;;;;;5.87;83.29;98674.75;5027791;28;20313;-73
2022/11/24 10:58:29;;;;;;;8.82;5.63;;;;;;;5.87;83.23;98677.38;5028124;28;20053;-73
2022/11/24 11:00:58;;;;;;;6.53;5.20;;;;;;;5.59;83.46;98627.84;5027594;28;20049;-73
2022/11/24 11:03:27;;;;;;;7.82;5.85;;;;;;;5.91;83.38;98666.63;5026881;28;20041;-73
2022/11/24 11:05:56;;;;;;;8.70;6.47;;;;;;;5.93;83.54;98670.03;5026847;28;20034;-74
2022/11/24 11:08:27;;;;;;;7.78;5.25;;;;;;;5.94;83.41;98666.50;5027527;28;20042;-74
2022/11/24 11:11:28;;;;;;;7.57;5.50;;;;;;;5.98;83.98;98672.47;5027654;28;20053;-74
2022/11/24 11:13:56;;;;;;;9.77;5.32;;;;;;;5.28;83.59;98563.56;4987318;28;20118;-74
2022/11/24 11:16:27;;;;;;;12.63;5.60;;;;;;;6.01;83.72;98669.69;4971236;28;20362;-74
2022/11/24 11:18:54;;;;;;;10.32;5.53;;;;;;;6.03;83.62;98681.00;5006201;28;20049;-74
2022/11/24 11:21:34;;;;;;;7.22;4.97;;;;;;;5.96;83.91;98663.78;5027948;28;20057;-73
2022/11/24 11:24:04;;;;;;;7.65;5.13;;;;;;;6.06;83.44;98680.84;5027320;28;20085;-73
2022/11/24 11:26:34;;;;;;;9.13;4.72;;;;;;;6.07;83.67;98674.66;5027565;28;20062;-73
2022/11/24 11:29:04;;;;;;;8.45;5.32;;;;;;;5.19;83.66;98627.03;5027766;28;20053;-73
2022/11/24 11:31:34;;;;;;;8.32;5.28;;;;;;;5.90;83.90;98643.03;5027696;28;20061;-73
2022/11/24 11:34:12;;;;;;;8.80;5.57;;;;;;;6.12;84.18;98679.69;5027040;28;20096;-74
2022/11/24 11:36:41;;;;;;;7.65;4.80;;;;;;;6.12;83.93;98674.44;5026960;28;20042;-73
2022/11/24 11:39:22;;;;;;;7.18;6.03;;;;;;;6.16;84.57;98679.47;5026258;28;20156;-74
2022/11/24 11:41:51;;;;;;;7.07;4.95;;;;;;;5.66;84.05;98611.72;5027277;28;20289;-74
2022/11/24 11:44:30;;;;;;;6.70;5.03;;;;;;;6.18;84.64;98685.53;5026116;28;20042;-74
2022/11/24 11:46:58;;;;;;;7.20;4.75;;;;;;;6.20;84.50;98675.78;5026777;28;20049;-74
2022/11/24 11:49:25;;;;;;;8.18;4.97;;;;;;;6.23;84.54;98674.78;5027119;28;20053;-74
2022/11/24 11:52:31;;;;;;;7.53;5.53;;;;;;;6.26;85.07;98678.09;5025850;28;20054;-74